Time,TemperatureF,DewpointF,PressureIn,WindDirection,WindDirectionDegrees,WindSpeedMPH,WindSpeedGustMPH,Humidity,HourlyPrecipIn,Conditions,Clouds,dailyrainin,SolarRadiationWatts/m^2,SoftwareType,DateUTC
2013-03-11 00:03:00,44.0,21.0,-100.00,SSE,156,0.0,0.0,39,0.00,,,0.00,0.000000,,2013-03-11 04:03:00,
2013-03-11 00:12:00,44.0,21.0,-100.00,SSE,156,0.0,0.0,39,0.00,,,0.00,0.000000,,2013-03-11 04:12:00,
2013-03-11 00:33:00,44.0,21.0,-100.00,SSE,160,0.0,0.0,39,0.00,,,0.00,0.000000,,2013-03-11 04:33:00,
2013-03-11 00:43:00,44.0,21.0,-100.00,SSE,160,0.0,0.0,39,0.00,,,0.00,0.000000,,2013-03-11 04:43:00,
2013-03-11 00:53:00,44.0,21.0,-100.00,SSE,160,0.0,0.0,39,0.00,,,0.00,0.000000,,2013-03-11 04:53:00,
2013-03-11 01:03:00,44.0,21.0,-100.00,SSE,160,0.0,0.0,39,0.00,,,0.00,0.000000,,2013-03-11 05:03:00,
2013-03-11 01:12:00,44.0,21.0,-100.00,SSE,160,0.0,0.0,39,0.00,,,0.00,0.000000,,2013-03-11 05:12:00,
2013-03-11 01:32:00,43.0,20.0,-100.00,South,170,0.0,0.0,40,0.00,,,0.00,0.000000,,2013-03-11 05:32:00,
2013-03-11 01:43:00,43.0,20.0,-100.00,South,170,0.0,0.0,40,0.00,,,0.00,0.000000,,2013-03-11 05:43:00,
2013-03-11 01:52:00,43.0,20.0,-100.00,South,170,0.0,0.0,40,0.00,,,0.00,0.000000,,2013-03-11 05:52:00,
2013-03-11 02:02:00,43.0,20.0,-100.00,South,170,0.0,0.0,40,0.00,,,0.00,0.000000,,2013-03-11 06:02:00,
2013-03-11 02:12:00,43.0,20.0,-100.00,South,170,0.0,0.0,40,0.00,,,0.00,0.000000,,2013-03-11 06:12:00,
2013-03-11 02:33:00,43.0,20.0,-100.00,South,169,0.0,0.0,39,0.00,,,0.00,0.000000,,2013-03-11 06:33:00,
2013-03-11 02:42:00,43.0,20.0,-100.00,South,169,0.0,0.0,39,0.00,,,0.00,0.000000,,2013-03-11 06:42:00,
2013-03-11 02:53:00,43.0,20.0,-100.00,South,169,0.0,0.0,39,0.00,,,0.00,0.000000,,2013-03-11 06:53:00,
2013-03-11 03:03:00,43.0,20.0,-100.00,South,169,0.0,0.0,39,0.00,,,0.00,0.000000,,2013-03-11 07:03:00,
2013-03-11 03:12:00,43.0,20.0,-100.00,South,169,0.0,0.0,39,0.00,,,0.00,0.000000,,2013-03-11 07:12:00,
2013-03-11 03:33:00,43.0,21.0,-100.00,SSE,165,0.0,0.0,41,0.00,,,0.00,0.000000,,2013-03-11 07:33:00,
2013-03-11 03:42:00,43.0,21.0,-100.00,SSE,165,0.0,0.0,41,0.00,,,0.00,0.000000,,2013-03-11 07:42:00,
2013-03-11 03:52:00,43.0,21.0,-100.00,SSE,165,0.0,0.0,41,0.00,,,0.00,0.000000,,2013-03-11 07:52:00,
2013-03-11 04:02:00,43.0,21.0,-100.00,SSE,165,0.0,0.0,41,0.00,,,0.00,0.000000,,2013-03-11 08:02:00,
2013-03-11 04:12:00,43.0,21.0,-100.00,SSE,165,0.0,0.0,41,0.00,,,0.00,0.000000,,2013-03-11 08:12:00,
2013-03-11 04:42:00,43.0,20.0,-100.00,SSE,164,0.0,0.0,40,0.00,,,0.00,0.000000,,2013-03-11 08:42:00,
2013-03-11 04:52:00,43.0,20.0,-100.00,SSE,164,0.0,0.0,40,0.00,,,0.00,0.000000,,2013-03-11 08:52:00,
2013-03-11 05:02:00,43.0,20.0,-100.00,SSE,164,0.0,0.0,40,0.00,,,0.00,0.000000,,2013-03-11 09:02:00,
2013-03-11 05:12:00,43.0,20.0,-100.00,SSE,164,0.0,0.0,40,0.00,,,0.00,0.000000,,2013-03-11 09:12:00,
2013-03-11 05:32:00,42.0,20.0,-100.00,SSE,158,0.0,0.0,41,0.00,,,0.00,0.000000,,2013-03-11 09:32:00,
2013-03-11 05:42:00,42.0,20.0,-100.00,SSE,158,0.0,0.0,41,0.00,,,0.00,0.000000,,2013-03-11 09:42:00,
2013-03-11 05:53:00,42.0,20.0,-100.00,SSE,158,0.0,0.0,41,0.00,,,0.00,0.000000,,2013-03-11 09:53:00,
2013-03-11 06:02:00,42.0,20.0,-100.00,SSE,158,0.0,0.0,41,0.00,,,0.00,0.000000,,2013-03-11 10:02:00,
2013-03-11 06:12:00,42.0,20.0,-100.00,SSE,158,0.0,0.0,41,0.00,,,0.00,0.000000,,2013-03-11 10:12:00,
2013-03-11 06:33:00,42.0,19.0,-100.00,SSE,157,0.0,0.0,40,0.00,,,0.00,0.000000,,2013-03-11 10:33:00,
2013-03-11 06:42:00,42.0,19.0,-100.00,SSE,157,0.0,0.0,40,0.00,,,0.00,0.000000,,2013-03-11 10:42:00,
2013-03-11 06:53:00,42.0,19.0,-100.00,SSE,157,0.0,0.0,40,0.00,,,0.00,0.000000,,2013-03-11 10:53:00,
2013-03-11 07:02:00,42.0,19.0,-100.00,SSE,157,0.0,0.0,40,0.00,,,0.00,0.000000,,2013-03-11 11:02:00,
2013-03-11 07:12:00,42.0,19.0,-100.00,SSE,157,0.0,0.0,40,0.00,,,0.00,0.000000,,2013-03-11 11:12:00,
2013-03-11 07:33:00,42.0,20.0,-100.00,SSE,154,0.0,0.0,41,0.00,,,-99.99,0.000000,,2013-03-11 11:33:00,
2013-03-11 07:43:00,42.0,20.0,-100.00,SSE,154,0.0,0.0,41,0.00,,,-99.99,0.000000,,2013-03-11 11:43:00,
2013-03-11 07:53:00,42.0,20.0,-100.00,SSE,154,0.0,0.0,41,0.00,,,-99.99,0.000000,,2013-03-11 11:53:00,
2013-03-11 08:02:00,42.0,20.0,-100.00,SSE,154,0.0,0.0,41,0.00,,,-99.99,0.000000,,2013-03-11 12:02:00,
2013-03-11 08:12:00,42.0,20.0,-100.00,SSE,154,0.0,0.0,41,0.00,,,-99.99,0.000000,,2013-03-11 12:12:00,
2013-03-11 08:43:00,42.0,21.0,-100.00,SSE,154,0.0,0.0,43,0.00,,,-99.99,6.000000,,2013-03-11 12:43:00,
2013-03-11 08:53:00,42.0,21.0,-100.00,SSE,154,0.0,0.0,43,0.00,,,-99.99,6.000000,,2013-03-11 12:53:00,
2013-03-11 09:03:00,42.0,21.0,-100.00,SSE,154,0.0,0.0,43,0.00,,,-99.99,6.000000,,2013-03-11 13:03:00,
2013-03-11 09:12:00,42.0,21.0,-100.00,SSE,154,0.0,0.0,43,0.00,,,-99.99,6.000000,,2013-03-11 13:12:00,
2013-03-11 09:33:00,43.0,23.0,-100.00,South,176,0.0,0.0,45,0.00,,,0.00,50.000000,,2013-03-11 13:33:00,
2013-03-11 09:43:00,43.0,23.0,-100.00,South,176,0.0,0.0,45,0.00,,,0.00,50.000000,,2013-03-11 13:43:00,
2013-03-11 09:53:00,43.0,23.0,-100.00,South,176,0.0,0.0,45,0.00,,,0.00,50.000000,,2013-03-11 13:53:00,
2013-03-11 10:02:00,43.0,23.0,-100.00,South,176,0.0,0.0,45,0.00,,,0.00,50.000000,,2013-03-11 14:02:00,
2013-03-11 10:12:00,43.0,23.0,-100.00,South,176,0.0,0.0,45,0.00,,,0.00,50.000000,,2013-03-11 14:12:00,
2013-03-11 10:43:00,47.0,25.0,-100.00,South,179,0.0,0.0,42,0.00,,,0.00,153.000000,,2013-03-11 14:43:00,
2013-03-11 10:53:00,47.0,25.0,-100.00,South,179,0.0,0.0,42,0.00,,,0.00,153.000000,,2013-03-11 14:53:00,
2013-03-11 11:03:00,47.0,25.0,-100.00,South,179,0.0,0.0,42,0.00,,,0.00,153.000000,,2013-03-11 15:03:00,
2013-03-11 11:13:00,47.0,25.0,-100.00,South,179,0.0,0.0,42,0.00,,,0.00,153.000000,,2013-03-11 15:13:00,
2013-03-11 11:43:00,51.0,21.0,-100.00,SSW,194,0.0,0.0,30,0.00,,,0.00,245.000000,,2013-03-11 15:43:00,
2013-03-11 11:53:00,51.0,21.0,-100.00,SSW,194,0.0,0.0,30,0.00,,,0.00,245.000000,,2013-03-11 15:53:00,
2013-03-11 12:03:00,51.0,21.0,-100.00,SSW,194,0.0,0.0,30,0.00,,,0.00,245.000000,,2013-03-11 16:03:00,
2013-03-11 12:13:00,51.0,21.0,-100.00,SSW,194,0.0,0.0,30,0.00,,,0.00,245.000000,,2013-03-11 16:13:00,
2013-03-11 12:15:00,52.0,16.0,-100.00,South,176,0.0,0.0,24,0.00,,,0.00,285.000000,,2013-03-11 16:15:00,
2013-03-11 12:32:00,52.0,16.0,-100.00,South,176,0.0,0.0,24,0.00,,,0.00,285.000000,,2013-03-11 16:32:00,
2013-03-11 12:43:00,52.0,16.0,-100.00,South,176,0.0,0.0,24,0.00,,,0.00,285.000000,,2013-03-11 16:43:00,
2013-03-11 12:53:00,52.0,16.0,-100.00,South,176,0.0,0.0,24,0.00,,,0.00,285.000000,,2013-03-11 16:53:00,
2013-03-11 13:03:00,52.0,16.0,-100.00,South,176,0.0,0.0,24,0.00,,,0.00,285.000000,,2013-03-11 17:03:00,
2013-03-11 13:42:00,50.0,19.0,-100.00,South,175,0.0,0.0,29,0.00,,,-99.99,229.000000,,2013-03-11 17:42:00,
2013-03-11 13:53:00,50.0,19.0,-100.00,South,175,0.0,0.0,29,0.00,,,-99.99,229.000000,,2013-03-11 17:53:00,
2013-03-11 14:02:00,50.0,19.0,-100.00,South,175,0.0,0.0,29,0.00,,,-99.99,229.000000,,2013-03-11 18:02:00,
2013-03-11 14:12:00,50.0,19.0,-100.00,South,175,0.0,0.0,29,0.00,,,-99.99,229.000000,,2013-03-11 18:12:00,
2013-03-11 14:33:00,50.0,23.0,-100.00,SSE,150,0.0,0.0,34,0.00,,,0.00,257.000000,,2013-03-11 18:33:00,
2013-03-11 14:43:00,50.0,23.0,-100.00,SSE,150,0.0,0.0,34,0.00,,,0.00,257.000000,,2013-03-11 18:43:00,
2013-03-11 14:53:00,50.0,23.0,-100.00,SSE,150,0.0,0.0,34,0.00,,,0.00,257.000000,,2013-03-11 18:53:00,
2013-03-11 15:02:00,50.0,23.0,-100.00,SSE,150,0.0,0.0,34,0.00,,,0.00,257.000000,,2013-03-11 19:02:00,
2013-03-11 15:13:00,50.0,23.0,-100.00,SSE,150,0.0,0.0,34,0.00,,,0.00,257.000000,,2013-03-11 19:13:00,
2013-03-11 15:43:00,47.0,30.0,-100.00,SSE,166,0.0,0.0,51,0.00,,,0.00,166.000000,,2013-03-11 19:43:00,
2013-03-11 15:53:00,47.0,30.0,-100.00,SSE,166,0.0,0.0,51,0.00,,,0.00,166.000000,,2013-03-11 19:53:00,
2013-03-11 16:02:00,47.0,30.0,-100.00,SSE,166,0.0,0.0,51,0.00,,,0.00,166.000000,,2013-03-11 20:02:00,
2013-03-11 16:12:00,47.0,30.0,-100.00,SSE,166,0.0,0.0,51,0.00,,,0.00,166.000000,,2013-03-11 20:12:00,
2013-03-11 16:44:00,46.0,35.0,-100.00,SSE,158,0.0,0.0,64,0.00,,,0.00,72.000000,,2013-03-11 20:44:00,
2013-03-11 16:53:00,46.0,35.0,-100.00,SSE,158,0.0,0.0,64,0.00,,,0.00,72.000000,,2013-03-11 20:53:00,
2013-03-11 17:03:00,46.0,35.0,-100.00,SSE,158,0.0,0.0,64,0.00,,,0.00,72.000000,,2013-03-11 21:03:00,
2013-03-11 17:13:00,46.0,35.0,-100.00,SSE,158,0.0,0.0,64,0.00,,,0.00,72.000000,,2013-03-11 21:13:00,
2013-03-11 17:33:00,45.0,38.0,-100.00,South,170,0.0,0.0,75,0.00,,,0.00,47.000000,,2013-03-11 21:33:00,
2013-03-11 17:44:00,45.0,38.0,-100.00,South,170,0.0,0.0,75,0.00,,,0.00,47.000000,,2013-03-11 21:44:00,
2013-03-11 17:54:00,45.0,38.0,-100.00,South,170,0.0,0.0,75,0.00,,,0.00,47.000000,,2013-03-11 21:54:00,
2013-03-11 18:03:00,45.0,38.0,-100.00,South,170,0.0,0.0,75,0.00,,,0.00,47.000000,,2013-03-11 22:03:00,
2013-03-11 18:13:00,45.0,38.0,-100.00,South,170,0.0,0.0,75,0.00,,,0.00,47.000000,,2013-03-11 22:13:00,
2013-03-11 18:33:00,44.0,41.0,-100.00,SSE,156,0.0,0.0,89,0.00,,,0.00,33.000000,,2013-03-11 22:33:00,
2013-03-11 18:43:00,44.0,41.0,-100.00,SSE,156,0.0,0.0,89,0.00,,,0.00,33.000000,,2013-03-11 22:43:00,
2013-03-11 18:53:00,44.0,41.0,-100.00,SSE,156,0.0,0.0,89,0.00,,,0.00,33.000000,,2013-03-11 22:53:00,
2013-03-11 19:03:00,44.0,41.0,-100.00,SSE,156,0.0,0.0,89,0.00,,,0.00,33.000000,,2013-03-11 23:03:00,
2013-03-11 19:12:00,44.0,41.0,-100.00,SSE,156,0.0,0.0,89,0.00,,,0.00,33.000000,,2013-03-11 23:12:00,
2013-03-11 19:33:00,45.0,44.0,-100.00,SSE,147,0.0,0.0,96,0.00,,,0.00,6.000000,,2013-03-11 23:33:00,
2013-03-11 19:43:00,45.0,44.0,-100.00,SSE,147,0.0,0.0,96,0.00,,,0.00,6.000000,,2013-03-11 23:43:00,
2013-03-11 19:54:00,45.0,44.0,-100.00,SSE,147,0.0,0.0,96,0.00,,,0.00,6.000000,,2013-03-11 23:54:00,
2013-03-11 20:02:00,45.0,44.0,-100.00,SSE,147,0.0,0.0,96,0.00,,,0.00,6.000000,,2013-03-12 00:02:00,
2013-03-11 20:13:00,45.0,44.0,-100.00,SSE,147,0.0,0.0,96,0.00,,,0.00,6.000000,,2013-03-12 00:13:00,
2013-03-11 20:43:00,45.0,45.0,-100.00,SE,134,0.0,0.0,100,0.00,,,0.00,0.000000,,2013-03-12 00:43:00,
2013-03-11 20:54:00,45.0,45.0,-100.00,SE,134,0.0,0.0,100,0.00,,,0.00,0.000000,,2013-03-12 00:54:00,
2013-03-11 21:02:00,45.0,45.0,-100.00,SE,134,0.0,0.0,100,0.00,,,0.00,0.000000,,2013-03-12 01:02:00,
2013-03-11 21:12:00,45.0,45.0,-100.00,SE,134,0.0,0.0,100,0.00,,,0.00,0.000000,,2013-03-12 01:12:00,
2013-03-11 21:42:00,46.0,46.0,-100.00,SE,142,0.0,0.0,100,0.00,,,0.00,0.000000,,2013-03-12 01:42:00,
2013-03-11 21:53:00,46.0,46.0,-100.00,SE,142,0.0,0.0,100,0.00,,,0.00,0.000000,,2013-03-12 01:53:00,
2013-03-11 22:02:00,46.0,46.0,-100.00,SE,142,0.0,0.0,100,0.00,,,0.00,0.000000,,2013-03-12 02:02:00,
2013-03-11 22:12:00,46.0,46.0,-100.00,SE,142,0.0,0.0,100,0.00,,,0.00,0.000000,,2013-03-12 02:12:00,
2013-03-11 22:43:00,46.0,46.0,-100.00,SE,143,0.0,0.0,100,0.00,,,0.00,0.000000,,2013-03-12 02:43:00,
2013-03-11 22:52:00,46.0,46.0,-100.00,SE,143,0.0,0.0,100,0.00,,,0.00,0.000000,,2013-03-12 02:52:00,
2013-03-11 23:02:00,46.0,46.0,-100.00,SE,143,0.0,0.0,100,0.00,,,0.00,0.000000,,2013-03-12 03:02:00,
2013-03-11 23:12:00,46.0,46.0,-100.00,SE,143,0.0,0.0,100,0.00,,,0.00,0.000000,,2013-03-12 03:12:00,
2013-03-11 23:43:00,47.0,47.0,-100.00,SSE,147,0.0,0.0,100,0.00,,,0.00,0.000000,,2013-03-12 03:43:00,
2013-03-11 23:53:00,47.0,47.0,-100.00,SSE,147,0.0,0.0,100,0.00,,,0.00,0.000000,,2013-03-12 03:53:00,